createdAt,value
2023-03-17T00:03:06.910Z,35.80
2023-03-17T00:08:22.116Z,35.90
2023-03-17T00:13:30.692Z,35.30
2023-03-17T00:18:38.366Z,34.40
2023-03-17T00:23:49.754Z,36.40
2023-03-17T00:28:57.156Z,38.00
2023-03-17T00:34:04.112Z,36.00
2023-03-17T00:44:22.452Z,32.00
2023-03-17T00:49:29.842Z,31.80
2023-03-17T00:54:36.884Z,29.40
2023-03-17T00:59:45.085Z,28.90
2023-03-17T01:04:59.849Z,28.20
2023-03-17T01:10:19.869Z,28.60
2023-03-17T01:15:31.677Z,26.20
2023-03-17T01:20:38.911Z,26.20
2023-03-17T01:25:46.776Z,26.60
2023-03-17T01:30:53.917Z,23.50
2023-03-17T01:36:01.041Z,24.40
2023-03-17T01:41:08.224Z,25.00
2023-03-17T01:46:25.379Z,22.70
2023-03-17T01:51:38.019Z,22.90
2023-03-17T01:56:49.235Z,20.40
2023-03-17T02:02:02.622Z,20.90
2023-03-17T02:07:10.512Z,20.60
2023-03-17T02:12:22.442Z,21.20
2023-03-17T02:17:31.177Z,20.30
2023-03-17T02:22:38.508Z,20.60
2023-03-17T02:27:50.360Z,22.30
2023-03-17T02:32:59.913Z,22.60
2023-03-17T02:38:06.982Z,23.70
2023-03-17T02:43:14.149Z,21.10
2023-03-17T02:48:22.919Z,22.90
2023-03-17T02:53:30.067Z,20.50
2023-03-17T02:58:40.243Z,21.40
2023-03-17T03:03:47.374Z,19.80
2023-03-17T03:08:54.900Z,20.00
2023-03-17T03:14:02.425Z,21.00
2023-03-17T03:19:09.686Z,22.40
2023-03-17T03:24:17.017Z,20.40
2023-03-17T03:29:24.010Z,19.70
2023-03-17T03:34:31.172Z,21.60
2023-03-17T03:39:39.237Z,23.40
2023-03-17T03:44:46.353Z,21.00
2023-03-17T03:49:53.491Z,22.20
2023-03-17T03:55:00.637Z,20.50
2023-03-17T04:00:11.298Z,22.40
2023-03-17T04:05:22.410Z,20.50
2023-03-17T04:10:30.084Z,22.10
2023-03-17T04:15:37.645Z,22.00
2023-03-17T04:20:45.908Z,20.90
2023-03-17T04:25:55.088Z,22.60
2023-03-17T04:31:02.024Z,22.00
2023-03-17T04:36:14.912Z,22.00
2023-03-17T04:41:22.393Z,24.70
2023-03-17T04:46:29.808Z,21.90
2023-03-17T04:51:37.853Z,26.30
2023-03-17T04:56:44.985Z,25.30
2023-03-17T05:01:52.101Z,22.70
2023-03-17T05:06:59.287Z,22.60
2023-03-17T05:12:08.728Z,23.80
2023-03-17T05:17:15.745Z,25.10
2023-03-17T05:22:22.933Z,26.00
2023-03-17T05:27:29.929Z,27.80
2023-03-17T05:32:37.324Z,26.20
2023-03-17T05:37:44.319Z,27.70
2023-03-17T05:42:51.550Z,26.70
2023-03-17T05:47:59.072Z,30.30
2023-03-17T05:53:06.403Z,31.00
2023-03-17T05:58:15.602Z,30.50
2023-03-17T06:03:22.970Z,32.60
2023-03-17T06:08:29.983Z,33.10
2023-03-17T06:13:37.764Z,33.00
2023-03-17T06:18:45.459Z,31.20
2023-03-17T06:23:54.568Z,33.10
2023-03-17T06:29:02.197Z,29.50
2023-03-17T06:34:09.414Z,32.10
2023-03-17T06:39:19.287Z,29.70
2023-03-17T06:44:26.492Z,29.10
2023-03-17T06:49:33.693Z,27.80
2023-03-17T06:54:41.428Z,28.40
2023-03-17T06:59:48.421Z,27.40
2023-03-17T07:04:57.808Z,28.90
2023-03-17T07:10:05.827Z,27.80
2023-03-17T07:15:13.873Z,27.90
2023-03-17T07:20:21.206Z,31.30
2023-03-17T07:25:28.304Z,32.20
2023-03-17T07:30:35.320Z,29.30
2023-03-17T07:35:43.776Z,28.80
2023-03-17T07:40:53.093Z,28.60
2023-03-17T07:46:00.295Z,27.70
2023-03-17T07:51:07.432Z,30.30
2023-03-17T07:56:15.494Z,29.10
2023-03-17T08:01:23.580Z,29.00
2023-03-17T08:06:31.305Z,27.30
2023-03-17T08:11:38.936Z,27.20
2023-03-17T08:16:46.141Z,25.90
2023-03-17T08:21:53.246Z,25.30
2023-03-17T08:27:00.990Z,28.80
2023-03-17T08:32:09.781Z,26.10
2023-03-17T08:37:19.510Z,26.20
2023-03-17T08:42:27.409Z,25.60
2023-03-17T08:47:35.083Z,23.20
2023-03-17T08:52:42.220Z,22.70
2023-03-17T08:57:49.636Z,21.70
2023-03-17T09:02:57.062Z,19.40
2023-03-17T09:08:04.686Z,20.50
2023-03-17T09:13:11.775Z,21.70
2023-03-17T09:18:21.908Z,20.60
2023-03-17T09:23:29.309Z,17.90
2023-03-17T09:28:36.255Z,16.40
2023-03-17T09:33:43.301Z,18.00
2023-03-17T09:38:51.315Z,15.40
2023-03-17T09:44:07.885Z,14.70
2023-03-17T09:49:20.073Z,13.60
2023-03-17T09:54:32.556Z,12.00
2023-03-17T09:59:43.971Z,11.30
2023-03-17T10:04:51.877Z,10.70
2023-03-17T10:10:04.366Z,10.00
2023-03-17T10:15:19.833Z,8.90
2023-03-17T10:20:29.910Z,8.80
2023-03-17T10:25:39.491Z,8.70
2023-03-17T10:30:46.508Z,8.30
2023-03-17T10:35:53.534Z,7.60
2023-03-17T10:41:03.557Z,8.40
2023-03-17T10:46:22.397Z,8.50
2023-03-17T10:51:34.355Z,7.80
2023-03-17T10:56:44.032Z,6.80
2023-03-17T11:01:55.408Z,6.50
2023-03-17T11:07:10.970Z,6.80
2023-03-17T11:12:27.174Z,6.20
2023-03-17T11:17:44.223Z,6.70
2023-03-17T11:23:02.318Z,6.00
2023-03-17T11:28:19.980Z,5.70
2023-03-17T11:33:36.951Z,4.90
2023-03-17T11:38:58.011Z,6.30
2023-03-17T11:44:25.212Z,5.50
2023-03-17T11:49:38.324Z,5.30
2023-03-17T11:54:58.834Z,5.50
2023-03-17T12:00:16.674Z,10.30
2023-03-17T12:05:26.727Z,5.10
2023-03-17T12:10:40.728Z,4.40
2023-03-17T12:15:53.230Z,5.00
2023-03-17T12:21:05.566Z,5.10
2023-03-17T12:26:16.439Z,6.10
2023-03-17T12:36:32.791Z,4.40
2023-03-17T12:41:57.632Z,4.20
2023-03-17T12:47:23.717Z,4.60
2023-03-17T12:52:42.944Z,4.70
2023-03-17T12:58:00.182Z,4.30
2023-03-17T13:03:23.845Z,3.90
2023-03-17T13:08:35.102Z,4.40
2023-03-17T13:13:49.457Z,4.70
2023-03-17T13:19:14.012Z,4.70
2023-03-17T13:24:47.263Z,4.40
2023-03-17T13:29:54.494Z,5.60
2023-03-17T13:35:18.137Z,5.10
2023-03-17T13:40:31.982Z,4.30
2023-03-17T13:45:42.125Z,4.20
2023-03-17T13:50:49.271Z,5.10
2023-03-17T13:56:17.538Z,5.60
2023-03-17T14:01:27.595Z,4.90
2023-03-17T14:06:39.446Z,5.50
2023-03-17T14:11:49.053Z,5.10
2023-03-17T14:17:00.515Z,6.40
2023-03-17T14:22:22.634Z,5.90
2023-03-17T14:27:32.332Z,6.20
2023-03-17T14:32:39.630Z,4.80
2023-03-17T14:37:46.882Z,5.00
2023-03-17T14:42:54.039Z,5.50
2023-03-17T14:48:02.846Z,6.70
2023-03-17T14:53:12.486Z,6.40
2023-03-17T14:58:26.381Z,5.70
2023-03-17T15:03:34.639Z,4.70
2023-03-17T15:08:47.293Z,4.90
2023-03-17T15:13:58.175Z,5.20
2023-03-17T15:19:18.254Z,4.90
2023-03-17T15:24:34.435Z,4.80
2023-03-17T15:29:41.710Z,5.20
2023-03-17T15:34:48.861Z,5.00
2023-03-17T15:39:56.833Z,5.70
2023-03-17T15:45:04.920Z,5.80
2023-03-17T15:50:19.175Z,6.60
2023-03-17T15:55:29.505Z,7.20
2023-03-17T16:00:37.178Z,9.60
2023-03-17T16:05:45.205Z,13.70
2023-03-17T16:10:53.125Z,9.80
2023-03-17T16:16:05.533Z,9.60
2023-03-17T16:21:12.914Z,12.90
2023-03-17T16:26:20.283Z,8.50
2023-03-17T16:31:30.274Z,7.50
2023-03-17T16:36:37.301Z,7.40
2023-03-17T16:41:44.212Z,9.40
2023-03-17T16:46:51.268Z,10.50
2023-03-17T16:51:58.409Z,9.40
2023-03-17T16:57:07.780Z,7.20
2023-03-17T17:02:18.266Z,8.50
2023-03-17T17:07:25.561Z,8.60
2023-03-17T17:12:32.540Z,8.10
2023-03-17T17:17:42.158Z,8.30
2023-03-17T17:22:50.018Z,9.10
2023-03-17T17:27:58.711Z,10.70
2023-03-17T17:33:06.283Z,10.90
2023-03-17T17:38:20.348Z,24.40
2023-03-17T17:43:27.538Z,12.90
2023-03-17T17:48:34.589Z,12.60
2023-03-17T17:53:41.858Z,12.70
2023-03-17T17:58:50.202Z,14.80
2023-03-17T18:03:57.046Z,15.10
2023-03-17T18:09:05.347Z,14.00
2023-03-17T18:14:13.730Z,19.90
2023-03-17T18:19:20.977Z,16.50
2023-03-17T18:24:30.395Z,17.00
2023-03-17T18:29:37.481Z,16.20
2023-03-17T18:34:47.340Z,12.60
2023-03-17T18:40:11.984Z,13.70
2023-03-17T18:45:21.930Z,12.60
2023-03-17T18:50:29.777Z,14.30
2023-03-17T18:55:41.324Z,15.10
2023-03-17T19:00:49.255Z,14.10
2023-03-17T19:05:56.534Z,15.90
2023-03-17T19:11:05.456Z,14.10
2023-03-17T19:16:12.561Z,19.60
2023-03-17T19:21:20.002Z,15.80
2023-03-17T19:26:27.358Z,30.70
2023-03-17T19:31:34.264Z,29.40
2023-03-17T19:36:43.413Z,21.40
2023-03-17T19:41:53.387Z,20.00
2023-03-17T19:47:05.329Z,20.00
2023-03-17T19:52:12.678Z,20.00
2023-03-17T19:57:20.938Z,21.50
2023-03-17T20:02:28.317Z,27.40
2023-03-17T20:07:36.034Z,18.50
2023-03-17T20:12:44.412Z,18.10
2023-03-17T20:17:51.483Z,15.80
2023-03-17T20:22:58.448Z,15.10
2023-03-17T20:28:06.068Z,14.80
2023-03-17T20:33:14.341Z,17.40
2023-03-17T20:38:21.503Z,20.90
2023-03-17T20:43:28.646Z,20.20
2023-03-17T20:48:36.446Z,17.70
2023-03-17T20:53:44.837Z,18.40
2023-03-17T20:58:53.402Z,17.30
2023-03-17T21:04:02.267Z,27.00
2023-03-17T21:09:09.522Z,19.00
2023-03-17T21:14:17.394Z,17.00
2023-03-17T21:19:24.684Z,16.20
2023-03-17T21:24:33.972Z,15.90
2023-03-17T21:29:41.567Z,17.00
2023-03-17T21:34:48.553Z,19.40
2023-03-17T21:39:56.910Z,20.40
2023-03-17T21:45:04.436Z,21.90
2023-03-17T21:50:12.729Z,22.30
2023-03-17T21:55:20.256Z,21.80
2023-03-17T22:00:35.920Z,21.80
2023-03-17T22:05:50.893Z,18.80
2023-03-17T22:10:58.210Z,19.40
2023-03-17T22:16:06.368Z,17.50
2023-03-17T22:21:13.659Z,19.50
2023-03-17T22:26:22.395Z,19.50
2023-03-17T22:31:30.644Z,21.80
2023-03-17T22:36:38.201Z,21.20
2023-03-17T22:41:45.800Z,20.50
2023-03-17T22:46:52.849Z,18.90
2023-03-17T22:51:59.975Z,19.50
2023-03-17T22:57:07.395Z,18.50
2023-03-17T23:02:18.101Z,19.50
2023-03-17T23:07:25.894Z,17.40
2023-03-17T23:12:33.298Z,16.90
2023-03-17T23:17:40.640Z,17.40
2023-03-17T23:22:48.294Z,16.80
2023-03-17T23:27:55.405Z,17.50
2023-03-17T23:33:02.552Z,17.10
2023-03-17T23:38:10.821Z,16.30
2023-03-17T23:43:18.390Z,14.90
2023-03-17T23:48:28.020Z,16.80
2023-03-17T23:53:35.119Z,17.00
2023-03-17T23:58:43.639Z,17.30
